Time;durP1;ratioP1;P1;durP2;ratioP2;P2;SDS_P1;SDS_P2;PMS_P1;PMS_P2;Temp;Humidity;BMP_temperature;BMP_pressure;BME280_temperature;BME280_humidity;BME280_pressure;Samples;Min_cycle;Max_cycle;Signal;HPM_P1;HPM_P2
2023/03/07 00:00:57;;;;;;;19.73;11.33;;;1.90;99.90;;;;;;5036368;28;20040;-89
2023/03/07 00:03:22;;;;;;;18.27;11.47;;;2.00;99.90;;;;;;5040060;28;20025;-89
2023/03/07 00:05:48;;;;;;;20.07;11.77;;;1.90;99.90;;;;;;5035657;28;20089;-89
2023/03/07 00:08:14;;;;;;;19.97;11.97;;;2.00;99.90;;;;;;5044056;28;20021;-89
2023/03/07 00:10:39;;;;;;;21.10;12.07;;;2.00;99.90;;;;;;5038741;28;20029;-89
2023/03/07 00:13:05;;;;;;;19.70;11.23;;;1.90;99.90;;;;;;5036189;28;20021;-89
2023/03/07 00:15:31;;;;;;;22.37;12.37;;;1.90;99.90;;;;;;5039880;28;20030;-89
2023/03/07 00:17:57;;;;;;;18.03;11.97;;;1.90;99.90;;;;;;5038209;28;20024;-89
2023/03/07 00:20:22;;;;;;;21.23;12.63;;;1.90;99.90;;;;;;5037056;28;20026;-89
2023/03/07 00:22:48;;;;;;;21.47;11.47;;;2.00;99.90;;;;;;5039222;28;20029;-89
2023/03/07 00:25:14;;;;;;;24.63;12.80;;;1.90;99.90;;;;;;5036955;28;20021;-89
2023/03/07 00:27:40;;;;;;;21.43;12.73;;;1.90;99.90;;;;;;5036158;28;20056;-89
2023/03/07 00:30:06;;;;;;;22.77;12.27;;;1.90;99.90;;;;;;5038980;28;20022;-89
2023/03/07 00:32:32;;;;;;;19.53;11.63;;;1.90;99.90;;;;;;5038712;28;20029;-89
2023/03/07 00:34:59;;;;;;;21.97;12.40;;;1.90;99.90;;;;;;5037015;28;20098;-88
2023/03/07 00:37:25;;;;;;;21.27;12.37;;;1.90;99.90;;;;;;5043618;28;20013;-89
2023/03/07 00:39:50;;;;;;;23.17;12.67;;;1.90;99.90;;;;;;5041198;28;20043;-88
2023/03/07 00:42:16;;;;;;;24.27;12.70;;;1.90;99.90;;;;;;5040450;28;20090;-89
2023/03/07 00:44:41;;;;;;;22.73;12.33;;;1.80;99.90;;;;;;5045543;28;20116;-89
2023/03/07 00:47:07;;;;;;;20.43;12.53;;;1.80;99.90;;;;;;5041369;28;20052;-89
2023/03/07 00:49:33;;;;;;;20.70;11.97;;;1.80;99.90;;;;;;5042174;28;20104;-89
2023/03/07 00:51:58;;;;;;;22.73;12.37;;;1.80;99.90;;;;;;5039655;28;20435;-89
2023/03/07 00:54:24;;;;;;;21.97;12.90;;;1.80;99.90;;;;;;5039299;28;20035;-89
2023/03/07 00:56:49;;;;;;;20.50;12.50;;;1.70;99.90;;;;;;5037841;28;20021;-88
2023/03/07 00:59:15;;;;;;;24.47;14.13;;;1.80;99.90;;;;;;5039000;28;20111;-89
2023/03/07 01:01:41;;;;;;;23.13;13.30;;;1.70;99.90;;;;;;5034025;28;20052;-89
2023/03/07 01:04:07;;;;;;;22.80;13.00;;;1.70;99.90;;;;;;5035868;28;20028;-89
2023/03/07 01:06:33;;;;;;;24.20;13.33;;;1.70;99.90;;;;;;5040628;28;20043;-88
2023/03/07 01:09:06;;;;;;;22.67;12.57;;;1.70;99.90;;;;;;5041156;28;20036;-88
2023/03/07 01:11:35;;;;;;;22.90;12.63;;;1.70;99.90;;;;;;5037201;28;20021;-88
2023/03/07 01:14:03;;;;;;;21.00;12.60;;;1.70;99.90;;;;;;5046605;28;20112;-89
2023/03/07 01:16:31;;;;;;;25.80;15.17;;;1.70;99.90;;;;;;5035872;28;20025;-88
2023/03/07 01:19:00;;;;;;;22.87;13.27;;;1.70;99.90;;;;;;5041304;28;20028;-88
2023/03/07 01:21:31;;;;;;;22.80;12.70;;;1.70;99.90;;;;;;5037951;28;20025;-88
2023/03/07 01:23:57;;;;;;;22.20;12.67;;;1.70;99.90;;;;;;5040939;28;20017;-88
2023/03/07 01:26:28;;;;;;;22.03;13.20;;;1.70;99.90;;;;;;5040618;28;20044;-88
2023/03/07 01:28:56;;;;;;;24.37;13.40;;;1.70;99.90;;;;;;5036537;28;20021;-89
2023/03/07 01:31:23;;;;;;;19.97;12.07;;;1.70;99.90;;;;;;5036543;28;20033;-89
2023/03/07 01:33:50;;;;;;;22.40;12.70;;;1.70;99.90;;;;;;5041035;28;20385;-89
2023/03/07 01:36:19;;;;;;;23.33;12.83;;;1.70;99.90;;;;;;5039247;28;20026;-88
2023/03/07 01:38:48;;;;;;;22.60;12.50;;;1.70;99.90;;;;;;5040947;28;20028;-89
2023/03/07 01:41:15;;;;;;;24.03;13.33;;;1.70;99.90;;;;;;5041286;28;20036;-88
2023/03/07 01:43:40;;;;;;;27.43;14.23;;;1.70;99.90;;;;;;5045953;28;20033;-88
2023/03/07 01:46:21;;;;;;;24.57;14.03;;;1.70;99.90;;;;;;5036798;28;20461;-88
2023/03/07 01:48:51;;;;;;;23.13;13.70;;;1.70;99.90;;;;;;5038708;28;20083;-88
2023/03/07 01:51:18;;;;;;;24.00;13.87;;;1.70;99.90;;;;;;5034089;28;20017;-88
2023/03/07 01:53:44;;;;;;;17.13;10.97;;;1.70;99.90;;;;;;5035299;28;20783;-89
2023/03/07 01:56:10;;;;;;;21.00;11.40;;;1.70;99.90;;;;;;5039095;28;20032;-89
2023/03/07 01:58:37;;;;;;;20.97;12.37;;;1.80;99.90;;;;;;5036879;28;20022;-88
2023/03/07 02:01:08;;;;;;;19.60;11.57;;;1.80;99.90;;;;;;5039636;28;20021;-88
2023/03/07 02:03:49;;;;;;;20.47;11.63;;;1.80;99.90;;;;;;5037140;28;20109;-88
2023/03/07 02:06:15;;;;;;;19.83;11.00;;;1.80;99.90;;;;;;5037125;28;20028;-88
2023/03/07 02:08:43;;;;;;;18.83;11.80;;;1.80;99.90;;;;;;5041322;28;21086;-88
2023/03/07 02:11:10;;;;;;;20.23;12.37;;;1.80;99.90;;;;;;5035044;28;20032;-88
2023/03/07 02:13:38;;;;;;;19.30;10.90;;;1.90;99.90;;;;;;5040933;28;20386;-88
2023/03/07 02:16:06;;;;;;;21.93;12.53;;;1.90;99.90;;;;;;5040072;28;20096;-88
2023/03/07 02:18:37;;;;;;;20.93;11.23;;;1.90;99.90;;;;;;5038444;28;20018;-88
2023/03/07 02:21:22;;;;;;;18.10;10.80;;;1.90;99.90;;;;;;5036703;28;20063;-88
2023/03/07 02:24:00;;;;;;;22.60;11.65;;;1.90;99.90;;;;;;5033330;28;20024;-88
2023/03/07 02:26:46;;;;;;;17.40;10.77;;;1.90;99.90;;;;;;5038420;28;20364;-88
2023/03/07 02:29:13;;;;;;;16.73;10.43;;;1.90;99.90;;;;;;5041023;28;20041;-88
2023/03/07 02:31:38;;;;;;;22.83;10.97;;;1.90;99.90;;;;;;5040517;28;20467;-88
2023/03/07 02:34:27;;;;;;;16.37;10.30;;;1.90;99.90;;;;;;5045643;28;20028;-88
2023/03/07 02:37:13;;;;;;;20.83;11.40;;;1.90;99.90;;;;;;5039248;28;20059;-88
2023/03/07 02:39:40;;;;;;;;;;;1.90;99.90;;;;;;5042011;28;20033;-88
2023/03/07 02:42:10;;;;;;;17.53;9.93;;;1.90;99.90;;;;;;5039839;28;19907;-88
2023/03/07 02:44:35;;;;;;;17.80;10.07;;;1.90;99.90;;;;;;5044261;28;20021;-88
2023/03/07 02:47:01;;;;;;;17.60;10.57;;;1.90;99.90;;;;;;5038082;28;20061;-89
2023/03/07 02:49:26;;;;;;;16.97;10.67;;;1.90;99.90;;;;;;5040050;28;20025;-89
2023/03/07 02:51:56;;;;;;;19.70;10.60;;;2.00;99.90;;;;;;5039148;28;20024;-88
2023/03/07 02:54:23;;;;;;;15.60;10.20;;;2.00;99.90;;;;;;5042819;28;20462;-88
2023/03/07 02:56:48;;;;;;;16.00;9.50;;;2.00;99.90;;;;;;5038714;28;20497;-88
2023/03/07 02:59:14;;;;;;;17.53;10.43;;;2.00;99.90;;;;;;5041202;28;20120;-88
2023/03/07 03:01:39;;;;;;;17.57;10.00;;;2.00;99.90;;;;;;5041426;28;20017;-88
2023/03/07 03:04:05;;;;;;;16.10;9.50;;;2.00;99.90;;;;;;5037987;28;20028;-88
2023/03/07 03:06:30;;;;;;;17.80;9.87;;;2.00;99.90;;;;;;5037803;28;20032;-88
2023/03/07 03:08:56;;;;;;;17.17;10.40;;;2.10;99.90;;;;;;5038023;28;20029;-88
2023/03/07 03:11:21;;;;;;;17.03;10.00;;;2.00;99.90;;;;;;5038891;28;20036;-88
2023/03/07 03:13:47;;;;;;;18.50;10.60;;;2.10;99.90;;;;;;5042848;28;20043;-88
2023/03/07 03:16:12;;;;;;;15.90;9.37;;;2.10;99.90;;;;;;5039373;28;20033;-88
2023/03/07 03:18:41;;;;;;;16.90;10.60;;;2.10;99.90;;;;;;5047694;28;20183;-88
2023/03/07 03:21:09;;;;;;;17.97;9.70;;;2.10;99.90;;;;;;5044733;28;20009;-88
2023/03/07 03:23:35;;;;;;;17.83;10.37;;;2.10;99.90;;;;;;5039231;28;20018;-88
2023/03/07 03:26:06;;;;;;;18.53;10.70;;;2.10;99.90;;;;;;5040128;28;20500;-88
2023/03/07 03:28:33;;;;;;;21.47;11.40;;;2.10;99.90;;;;;;5038414;28;20075;-87
2023/03/07 03:31:02;;;;;;;18.47;10.50;;;2.10;99.90;;;;;;5036216;28;20029;-88
2023/03/07 03:33:28;;;;;;;16.50;9.60;;;2.10;99.90;;;;;;5041485;28;20055;-87
2023/03/07 03:35:58;;;;;;;17.50;10.60;;;2.10;99.90;;;;;;5043227;28;20466;-87
2023/03/07 03:38:24;;;;;;;19.90;11.47;;;2.10;99.90;;;;;;5037400;28;20033;-87
2023/03/07 03:40:50;;;;;;;19.00;10.50;;;2.10;99.90;;;;;;5036884;28;20044;-88
2023/03/07 03:43:16;;;;;;;18.70;10.60;;;2.10;99.90;;;;;;5041447;28;20026;-88
2023/03/07 03:45:42;;;;;;;15.27;9.97;;;2.10;99.90;;;;;;5038106;28;20032;-89
2023/03/07 03:48:08;;;;;;;19.80;10.87;;;2.10;99.90;;;;;;5033163;28;20033;-88
2023/03/07 03:50:34;;;;;;;17.07;10.53;;;2.10;99.90;;;;;;5041968;28;20021;-88
2023/03/07 03:53:00;;;;;;;18.23;10.87;;;2.10;99.90;;;;;;5041447;28;20029;-88
2023/03/07 03:55:26;;;;;;;15.37;10.13;;;2.20;99.90;;;;;;5037039;28;20026;-88
2023/03/07 03:57:51;;;;;;;17.17;10.50;;;2.20;99.90;;;;;;5039628;28;20017;-88
2023/03/07 04:00:18;;;;;;;15.87;9.50;;;2.20;99.90;;;;;;5036381;28;20017;-88
2023/03/07 04:02:45;;;;;;;17.80;10.17;;;2.20;99.90;;;;;;5036879;28;20021;-88
2023/03/07 04:05:11;;;;;;;19.83;10.67;;;2.20;99.90;;;;;;5038567;28;20029;-88
2023/03/07 04:07:36;;;;;;;16.77;9.17;;;2.30;99.90;;;;;;5041902;28;20092;-88
2023/03/07 04:10:03;;;;;;;16.87;9.53;;;2.30;99.90;;;;;;5039071;28;20116;-88
2023/03/07 04:12:29;;;;;;;17.90;10.57;;;2.30;99.90;;;;;;5040005;28;20506;-88
2023/03/07 04:14:55;;;;;;;17.73;10.27;;;2.30;99.90;;;;;;5033076;28;20025;-88
2023/03/07 04:17:20;;;;;;;17.13;9.70;;;2.30;99.90;;;;;;5045135;28;20033;-87
2023/03/07 04:19:46;;;;;;;17.20;10.07;;;2.30;99.90;;;;;;5038473;28;20488;-88
2023/03/07 04:22:12;;;;;;;18.17;10.43;;;2.30;99.90;;;;;;5034871;28;20051;-88
2023/03/07 04:24:37;;;;;;;17.83;10.73;;;2.30;99.90;;;;;;5038839;28;20018;-87
2023/03/07 04:27:03;;;;;;;16.67;10.23;;;2.20;99.90;;;;;;5038989;28;20140;-88
2023/03/07 04:29:29;;;;;;;20.23;10.50;;;2.30;99.90;;;;;;5035680;28;20099;-88
2023/03/07 04:31:55;;;;;;;18.93;10.23;;;2.20;99.90;;;;;;5033358;28;20465;-88
2023/03/07 04:34:20;;;;;;;18.13;10.37;;;2.30;99.90;;;;;;5038702;28;20112;-88
2023/03/07 04:36:46;;;;;;;17.77;9.80;;;2.20;99.90;;;;;;5037373;28;20025;-88
2023/03/07 04:39:11;;;;;;;17.80;10.33;;;2.20;99.90;;;;;;5038750;28;20025;-89
2023/03/07 04:41:37;;;;;;;15.90;9.67;;;2.20;99.90;;;;;;5037131;28;20080;-88
2023/03/07 04:44:02;;;;;;;16.93;9.30;;;2.10;99.90;;;;;;5038982;28;20021;-88
2023/03/07 04:46:28;;;;;;;15.40;9.23;;;2.10;99.90;;;;;;5035910;28;20030;-87
2023/03/07 04:48:54;;;;;;;19.00;10.37;;;2.10;99.90;;;;;;5036819;28;21497;-88
2023/03/07 04:51:21;;;;;;;17.67;9.93;;;2.10;99.90;;;;;;5036528;28;20060;-88
2023/03/07 04:53:46;;;;;;;22.10;10.37;;;2.10;99.90;;;;;;5036723;28;20046;-88
2023/03/07 04:56:15;;;;;;;17.57;9.50;;;2.00;99.90;;;;;;5037584;28;20042;-88
2023/03/07 04:58:41;;;;;;;15.90;9.13;;;2.00;99.90;;;;;;5037120;28;20116;-89
2023/03/07 05:01:07;;;;;;;17.10;9.30;;;1.90;99.90;;;;;;5038259;28;20390;-88
2023/03/07 05:03:34;;;;;;;18.47;8.73;;;1.90;99.90;;;;;;5031981;28;20032;-88
2023/03/07 05:06:02;;;;;;;17.43;9.33;;;1.90;99.90;;;;;;5031998;28;20035;-88
2023/03/07 05:08:28;;;;;;;18.17;9.27;;;1.90;99.90;;;;;;5038374;28;20095;-88
2023/03/07 05:10:54;;;;;;;16.47;9.90;;;1.90;99.90;;;;;;5037778;28;20026;-88
2023/03/07 05:13:19;;;;;;;12.80;8.57;;;1.80;99.90;;;;;;5036936;28;20548;-88
2023/03/07 05:15:53;;;;;;;14.83;8.53;;;1.80;99.90;;;;;;5039077;28;20025;-89
2023/03/07 05:18:21;;;;;;;16.47;8.53;;;1.80;99.90;;;;;;5037334;28;20033;-88
2023/03/07 05:20:49;;;;;;;15.83;8.93;;;1.70;99.90;;;;;;5036357;28;20029;-87
2023/03/07 05:23:23;;;;;;;15.33;8.80;;;1.70;99.90;;;;;;5039988;28;20168;-88
2023/03/07 05:25:49;;;;;;;19.90;9.33;;;1.70;99.90;;;;;;5038656;28;20105;-89
2023/03/07 05:28:15;;;;;;;17.37;8.93;;;1.70;99.90;;;;;;5040000;28;20101;-89
2023/03/07 05:30:42;;;;;;;17.80;9.60;;;1.60;99.90;;;;;;5034037;28;20422;-88
2023/03/07 05:33:07;;;;;;;16.20;8.80;;;1.60;99.90;;;;;;5033540;28;20060;-88
2023/03/07 05:35:33;;;;;;;16.47;9.57;;;1.60;99.90;;;;;;5034478;28;20064;-88
2023/03/07 05:37:59;;;;;;;16.47;9.67;;;1.60;99.90;;;;;;5034057;28;20075;-88
2023/03/07 05:40:24;;;;;;;17.60;9.60;;;1.60;99.90;;;;;;5038208;28;21381;-88
2023/03/07 05:42:50;;;;;;;17.67;8.97;;;1.50;99.90;;;;;;5033600;28;20030;-89
2023/03/07 05:45:16;;;;;;;14.37;7.97;;;1.50;99.90;;;;;;5035289;28;20036;-88
2023/03/07 05:47:41;;;;;;;18.17;9.13;;;1.40;99.90;;;;;;5033190;28;20045;-87
2023/03/07 05:50:08;;;;;;;16.70;9.00;;;1.40;99.90;;;;;;5029667;28;20030;-88
2023/03/07 05:52:34;;;;;;;15.97;8.67;;;1.40;99.90;;;;;;5026611;28;20034;-88
2023/03/07 05:54:59;;;;;;;15.00;9.17;;;1.40;99.90;;;;;;5031514;28;20040;-88
2023/03/07 05:57:25;;;;;;;18.40;9.33;;;1.40;99.90;;;;;;5036789;28;20053;-88
2023/03/07 05:59:50;;;;;;;20.80;8.87;;;1.30;99.90;;;;;;5032669;28;20775;-88
2023/03/07 06:02:16;;;;;;;17.43;9.10;;;1.30;99.90;;;;;;5033488;28;20362;-88
2023/03/07 06:04:42;;;;;;;16.53;8.60;;;1.30;99.90;;;;;;5030356;28;20033;-88
2023/03/07 06:07:07;;;;;;;19.27;9.07;;;1.30;99.90;;;;;;5036448;28;20027;-87
2023/03/07 06:09:33;;;;;;;15.87;9.20;;;1.30;99.90;;;;;;5034973;28;20025;-87
2023/03/07 06:11:58;;;;;;;15.97;9.60;;;1.20;99.90;;;;;;5033296;28;20029;-88
2023/03/07 06:14:24;;;;;;;14.13;8.47;;;1.30;99.90;;;;;;5030801;28;20033;-88
2023/03/07 06:16:50;;;;;;;16.07;9.47;;;1.20;99.90;;;;;;5030906;28;20029;-80
2023/03/07 06:19:15;;;;;;;16.93;9.27;;;1.20;99.90;;;;;;5033147;28;20033;-80
2023/03/07 06:21:42;;;;;;;15.33;9.50;;;1.20;99.90;;;;;;5033098;28;20026;-80
2023/03/07 06:24:08;;;;;;;16.13;9.07;;;1.30;99.90;;;;;;5029990;28;20406;-80
2023/03/07 06:26:34;;;;;;;15.47;9.07;;;1.30;99.90;;;;;;5033540;28;20064;-80
2023/03/07 06:28:59;;;;;;;15.63;8.87;;;1.30;99.90;;;;;;5044296;28;20211;-80
2023/03/07 06:31:25;;;;;;;18.27;8.53;;;1.30;99.90;;;;;;5028949;28;20117;-80
2023/03/07 06:33:51;;;;;;;14.90;8.63;;;1.30;99.90;;;;;;5026616;28;20029;-88
2023/03/07 06:36:20;;;;;;;13.77;8.47;;;1.30;99.90;;;;;;5034455;28;20036;-88
2023/03/07 06:38:46;;;;;;;15.53;8.77;;;1.40;99.90;;;;;;5038652;28;20136;-80
2023/03/07 06:41:12;;;;;;;15.10;9.30;;;1.40;99.90;;;;;;5035270;28;20033;-87
2023/03/07 06:43:38;;;;;;;14.57;9.00;;;1.40;99.90;;;;;;5033020;28;20109;-88
2023/03/07 06:46:05;;;;;;;15.67;8.60;;;1.50;99.90;;;;;;5032755;28;20096;-88
2023/03/07 06:48:32;;;;;;;15.83;9.40;;;1.60;99.90;;;;;;5036191;28;20057;-88
2023/03/07 06:50:58;;;;;;;15.13;9.17;;;1.70;99.90;;;;;;5033461;28;20120;-88
2023/03/07 06:53:24;;;;;;;15.00;8.90;;;1.70;99.90;;;;;;5030519;28;20029;-88
2023/03/07 06:55:51;;;;;;;16.03;8.87;;;1.80;99.90;;;;;;5031984;28;20037;-88
2023/03/07 06:58:17;;;;;;;20.20;9.97;;;1.90;99.90;;;;;;5031777;28;20033;-88
2023/03/07 07:00:42;;;;;;;17.33;9.07;;;2.00;99.90;;;;;;5032298;28;20045;-88
2023/03/07 07:03:12;;;;;;;15.43;8.87;;;2.00;99.90;;;;;;5035157;28;20908;-87
2023/03/07 07:05:38;;;;;;;15.77;9.03;;;2.00;99.90;;;;;;5029273;28;20049;-88
2023/03/07 07:08:04;;;;;;;13.47;8.77;;;2.20;99.90;;;;;;5034464;28;20045;-88
2023/03/07 07:10:29;;;;;;;14.60;9.40;;;2.20;99.90;;;;;;5029821;28;20123;-88
2023/03/07 07:12:55;;;;;;;15.23;8.70;;;2.30;99.90;;;;;;5035215;28;20021;-88
2023/03/07 07:15:22;;;;;;;14.30;8.17;;;2.30;99.90;;;;;;5035637;28;20037;-88
2023/03/07 07:17:49;;;;;;;15.17;8.77;;;2.40;99.90;;;;;;5032631;28;20029;-87
2023/03/07 07:20:15;;;;;;;18.37;8.83;;;2.40;99.90;;;;;;5031432;28;20515;-88
2023/03/07 07:22:41;;;;;;;13.40;7.97;;;2.50;99.90;;;;;;5032317;28;20141;-88
2023/03/07 07:25:07;;;;;;;21.67;9.27;;;2.50;99.90;;;;;;5036066;28;20125;-88
2023/03/07 07:27:33;;;;;;;14.47;8.60;;;2.50;99.90;;;;;;5035366;28;20142;-88
2023/03/07 07:29:58;;;;;;;15.83;9.13;;;2.50;99.90;;;;;;5029173;28;22078;-88
2023/03/07 07:32:24;;;;;;;16.23;9.60;;;2.60;99.90;;;;;;5026715;28;20119;-88
2023/03/07 07:34:50;;;;;;;16.60;9.40;;;2.60;99.90;;;;;;5027584;28;20039;-88
2023/03/07 07:37:15;;;;;;;17.13;9.10;;;2.70;99.90;;;;;;5031077;28;20095;-88
2023/03/07 07:39:42;;;;;;;20.73;9.23;;;2.70;99.90;;;;;;5031446;28;20041;-88
2023/03/07 07:42:11;;;;;;;14.43;8.83;;;2.70;99.90;;;;;;5031705;28;20041;-88
2023/03/07 07:44:37;;;;;;;20.53;8.53;;;2.80;99.90;;;;;;5033141;28;20045;-87
2023/03/07 07:47:02;;;;;;;14.23;9.00;;;2.80;99.90;;;;;;5034705;28;20095;-89
2023/03/07 07:49:28;;;;;;;17.47;9.07;;;2.90;99.90;;;;;;5031807;28;20041;-89
2023/03/07 07:51:54;;;;;;;13.00;7.87;;;2.90;99.90;;;;;;5026543;28;20038;-88
2023/03/07 07:54:19;;;;;;;15.30;8.40;;;3.00;99.90;;;;;;5030869;28;20033;-88
2023/03/07 07:56:45;;;;;;;15.37;8.83;;;3.00;99.90;;;;;;5031706;28;20794;-88
2023/03/07 07:59:11;;;;;;;16.90;8.77;;;3.00;99.90;;;;;;5024484;28;20033;-88
2023/03/07 08:01:37;;;;;;;16.13;9.70;;;3.10;99.90;;;;;;5027538;28;20025;-89
2023/03/07 08:04:03;;;;;;;13.87;8.30;;;3.20;99.90;;;;;;5029296;28;20021;-88
2023/03/07 08:06:29;;;;;;;17.07;8.07;;;3.30;99.90;;;;;;5027070;28;20029;-89
2023/03/07 08:08:55;;;;;;;13.27;8.33;;;3.40;99.90;;;;;;5029610;28;20864;-89
2023/03/07 08:11:22;;;;;;;14.73;8.30;;;3.50;99.90;;;;;;5026678;28;20437;-88
2023/03/07 08:13:47;;;;;;;14.53;8.50;;;3.60;99.90;;;;;;5025493;28;20139;-88
2023/03/07 08:16:18;;;;;;;16.13;9.00;;;3.70;99.90;;;;;;5028970;28;20051;-88
2023/03/07 08:19:02;;;;;;;13.33;8.70;;;3.80;99.90;;;;;;5038630;28;20021;-89
2023/03/07 08:21:28;;;;;;;14.47;7.67;;;3.80;99.90;;;;;;5038326;28;20331;-88
2023/03/07 08:23:54;;;;;;;14.10;8.50;;;4.00;99.90;;;;;;5032104;28;20029;-89
2023/03/07 08:26:20;;;;;;;13.90;8.03;;;4.10;99.90;;;;;;5035206;28;20029;-88
2023/03/07 08:28:46;;;;;;;14.27;8.40;;;4.20;99.90;;;;;;5037809;28;20022;-88
2023/03/07 08:31:17;;;;;;;14.17;8.03;;;4.30;99.90;;;;;;5035443;28;20052;-89
2023/03/07 08:33:46;;;;;;;13.83;8.23;;;4.30;99.90;;;;;;5035595;28;20036;-88
2023/03/07 08:36:11;;;;;;;13.70;7.87;;;4.40;99.90;;;;;;5037911;28;20030;-88
2023/03/07 08:38:37;;;;;;;14.77;7.87;;;4.40;99.90;;;;;;5035689;28;20037;-88
2023/03/07 08:41:05;;;;;;;14.20;8.23;;;4.60;99.90;;;;;;5031799;28;20025;-89
2023/03/07 08:43:32;;;;;;;14.47;9.30;;;4.70;99.90;;;;;;5036352;28;20013;-88
2023/03/07 08:45:58;;;;;;;14.90;7.53;;;4.90;99.90;;;;;;5034571;28;20146;-89
2023/03/07 08:48:24;;;;;;;14.17;7.80;;;4.90;99.90;;;;;;5033281;28;20033;-88
2023/03/07 08:50:50;;;;;;;15.53;8.43;;;5.10;99.90;;;;;;5030033;28;20021;-88
2023/03/07 08:53:16;;;;;;;20.33;8.60;;;5.20;99.90;;;;;;5037216;28;20426;-88
2023/03/07 08:55:45;;;;;;;15.03;7.73;;;5.30;99.90;;;;;;5037035;28;20146;-88
2023/03/07 08:58:11;;;;;;;12.60;7.30;;;5.30;99.90;;;;;;5036285;28;20385;-88
2023/03/07 09:00:37;;;;;;;15.13;7.87;;;5.40;99.90;;;;;;5035847;28;20030;-88
2023/03/07 09:03:04;;;;;;;12.97;8.47;;;5.50;99.90;;;;;;5034561;28;20020;-88
2023/03/07 09:05:30;;;;;;;12.80;7.80;;;5.60;99.90;;;;;;5032072;28;20107;-87
2023/03/07 09:07:56;;;;;;;15.57;7.77;;;5.80;99.90;;;;;;5037685;28;20017;-88
2023/03/07 09:10:22;;;;;;;15.93;8.00;;;5.90;99.90;;;;;;5031065;28;20447;-87
2023/03/07 09:12:50;;;;;;;16.00;8.10;;;5.90;99.90;;;;;;5036600;28;20029;-88
2023/03/07 09:15:16;;;;;;;14.07;8.43;;;5.90;99.90;;;;;;5036109;28;20167;-88
2023/03/07 09:17:41;;;;;;;13.57;8.30;;;6.00;99.90;;;;;;5036167;28;20040;-88
2023/03/07 09:20:08;;;;;;;14.60;8.67;;;6.10;99.90;;;;;;5030149;28;20386;-88
2023/03/07 09:22:34;;;;;;;14.40;8.23;;;6.10;99.90;;;;;;5035854;28;20025;-88
2023/03/07 09:25:00;;;;;;;12.50;8.50;;;6.20;99.90;;;;;;5037914;28;20243;-87
2023/03/07 09:27:25;;;;;;;15.73;8.57;;;6.20;99.90;;;;;;5034091;28;20411;-87
2023/03/07 09:29:51;;;;;;;17.43;8.47;;;6.30;99.90;;;;;;5035197;28;20389;-88
2023/03/07 09:32:17;;;;;;;14.70;8.53;;;6.30;99.90;;;;;;5035792;28;20379;-87
2023/03/07 09:34:42;;;;;;;14.30;8.47;;;6.30;99.90;;;;;;5039267;28;20029;-87
2023/03/07 09:37:09;;;;;;;12.60;8.40;;;6.30;99.90;;;;;;5036984;28;20028;-87
2023/03/07 09:39:34;;;;;;;15.43;8.80;;;6.30;99.90;;;;;;5036060;28;20026;-88
2023/03/07 09:42:10;;;;;;;18.13;8.70;;;6.40;99.90;;;;;;5038465;28;20040;-87
2023/03/07 09:45:02;;;;;;;15.20;8.17;;;6.60;99.90;;;;;;5036015;28;20771;-85
2023/03/07 09:48:03;;;;;;;15.60;8.30;;;6.80;99.90;;;;;;5035360;28;20129;-87
2023/03/07 09:50:47;;;;;;;15.03;8.23;;;7.00;99.90;;;;;;5026615;28;20044;-86
2023/03/07 09:53:32;;;;;;;16.93;9.20;;;7.00;99.90;;;;;;5031411;28;20030;-87
2023/03/07 09:56:00;;;;;;;17.88;8.50;;;7.00;99.90;;;;;;5027203;28;20057;-87
2023/03/07 09:58:26;;;;;;;15.97;8.90;;;6.90;99.90;;;;;;5028639;28;20671;-87
2023/03/07 10:01:00;;;;;;;14.90;8.37;;;7.00;99.90;;;;;;5031237;28;20036;-87
2023/03/07 10:03:59;;;;;;;15.43;8.63;;;6.80;99.90;;;;;;5026046;28;20108;-87
2023/03/07 10:06:37;;;;;;;16.27;8.40;;;6.80;99.90;;;;;;5029407;28;20021;-87
2023/03/07 10:09:06;;;;;;;15.27;8.47;;;6.70;99.90;;;;;;5029121;28;20022;-87
2023/03/07 10:11:50;;;;;;;14.20;7.77;;;6.70;99.90;;;;;;5029822;28;20033;-87
2023/03/07 10:14:40;;;;;;;19.90;8.80;;;6.80;99.90;;;;;;5029399;28;20925;-86
2023/03/07 10:17:45;;;;;;;16.13;8.43;;;6.80;99.90;;;;;;5028443;28;20033;-87
2023/03/07 10:20:35;;;;;;;16.63;9.27;;;7.00;99.90;;;;;;5030307;28;20037;-87
2023/03/07 10:23:36;;;;;;;18.63;9.43;;;7.00;99.90;;;;;;5027996;28;20386;-87
2023/03/07 10:26:10;;;;;;;17.47;9.80;;;7.00;99.90;;;;;;5027085;28;20432;-88
2023/03/07 10:28:39;;;;;;;16.97;8.93;;;7.00;99.90;;;;;;5030098;28;20071;-87
2023/03/07 10:31:38;;;;;;;17.40;8.73;;;7.00;99.90;;;;;;5026476;28;20040;-87
2023/03/07 10:34:26;;;;;;;16.93;8.83;;;7.20;99.90;;;;;;5027700;28;20030;-87
2023/03/07 10:36:56;;;;;;;15.17;8.80;;;7.40;99.90;;;;;;5029455;28;20021;-87
2023/03/07 10:39:47;;;;;;;14.60;8.23;;;7.40;99.90;;;;;;5030937;28;20029;-88
2023/03/07 10:42:15;;;;;;;17.33;8.93;;;7.50;99.90;;;;;;5024228;28;20045;-87
2023/03/07 10:44:44;;;;;;;18.73;9.50;;;7.40;99.90;;;;;;5043579;28;20025;-86
2023/03/07 10:47:24;;;;;;;20.57;10.10;;;7.40;99.90;;;;;;5026609;28;20045;-87
2023/03/07 10:49:53;;;;;;;13.87;8.33;;;7.30;99.90;;;;;;5025982;28;20425;-87
2023/03/07 10:52:28;;;;;;;14.83;9.00;;;7.50;99.90;;;;;;5025297;28;20116;-87
2023/03/07 10:54:54;;;;;;;18.17;9.67;;;7.60;99.90;;;;;;5026368;28;20490;-87
2023/03/07 10:57:27;;;;;;;13.53;8.23;;;7.70;99.90;;;;;;5028862;28;20032;-87
2023/03/07 10:59:52;;;;;;;15.80;8.63;;;7.50;99.90;;;;;;5026430;28;20025;-87
2023/03/07 11:02:35;;;;;;;12.97;8.07;;;7.50;99.90;;;;;;5030218;28;20091;-87
2023/03/07 11:05:29;;;;;;;17.87;9.43;;;7.70;99.90;;;;;;5037977;28;20017;-87
2023/03/07 11:07:55;;;;;;;14.43;9.27;;;7.90;99.90;;;;;;5035430;28;20461;-86
2023/03/07 11:10:30;;;;;;;16.60;9.37;;;8.10;99.90;;;;;;5038653;28;20094;-86
2023/03/07 11:12:57;;;;;;;14.88;8.60;;;8.30;99.90;;;;;;5037852;28;20486;-83
2023/03/07 11:15:24;;;;;;;14.30;8.77;;;8.50;99.90;;;;;;5038288;28;20049;-84
2023/03/07 11:17:51;;;;;;;15.67;8.97;;;8.70;99.90;;;;;;5033898;28;20025;-87
2023/03/07 11:20:33;;;;;;;16.87;9.47;;;8.80;99.90;;;;;;5024411;28;20051;-85
2023/03/07 11:23:22;;;;;;;17.77;10.20;;;8.90;99.90;;;;;;5036614;28;20037;-85
2023/03/07 11:25:49;;;;;;;15.20;8.87;;;9.00;99.90;;;;;;5035836;28;20033;-85
2023/03/07 11:28:44;;;;;;;15.27;9.30;;;9.10;99.90;;;;;;5036675;28;20040;-85
2023/03/07 11:31:21;;;;;;;14.40;8.95;;;9.20;99.90;;;;;;5031821;28;20044;-85
2023/03/07 11:34:06;;;;;;;13.57;9.20;;;9.30;99.90;;;;;;5031601;28;20018;-85
2023/03/07 11:36:38;;;;;;;14.07;9.50;;;9.20;99.90;;;;;;5037189;28;20071;-85
2023/03/07 11:39:30;;;;;;;15.83;8.60;;;9.20;99.90;;;;;;5039843;28;20052;-76
2023/03/07 11:42:02;;;;;;;15.00;8.63;;;9.30;99.90;;;;;;5034796;28;20017;-85
2023/03/07 11:44:39;;;;;;;14.27;9.37;;;9.30;99.90;;;;;;5036172;28;20095;-86
2023/03/07 11:47:48;;;;;;;13.37;8.50;;;9.30;99.90;;;;;;5033542;28;20076;-85
2023/03/07 11:50:21;;;;;;;15.03;8.83;;;9.20;99.90;;;;;;5032175;28;20804;-85
2023/03/07 11:52:49;;;;;;;13.10;8.77;;;9.20;99.90;;;;;;5029441;28;20030;-86
2023/03/07 11:55:34;;;;;;;16.27;9.97;;;9.20;99.90;;;;;;5035572;28;20071;-85
2023/03/07 11:58:32;;;;;;;14.93;9.00;;;9.10;99.90;;;;;;5032646;28;20398;-85
2023/03/07 12:01:33;;;;;;;15.53;8.77;;;9.00;99.90;;;;;;5031110;28;20079;-79
2023/03/07 12:04:20;;;;;;;18.03;9.80;;;8.90;99.90;;;;;;5016543;28;20025;-80
2023/03/07 12:07:13;;;;;;;15.27;9.73;;;9.20;99.90;;;;;;5035020;28;20021;-78
2023/03/07 12:09:53;;;;;;;15.60;9.60;;;9.30;99.90;;;;;;5030409;28;20108;-78
2023/03/07 12:12:50;;;;;;;13.90;9.00;;;9.30;99.90;;;;;;5035436;28;20025;-78
2023/03/07 12:15:27;;;;;;;14.33;9.10;;;9.30;99.90;;;;;;5039878;28;20374;-78
2023/03/07 12:18:11;;;;;;;16.97;8.67;;;9.20;99.90;;;;;;5034199;28;20063;-79
2023/03/07 12:21:02;;;;;;;15.40;8.77;;;9.50;99.90;;;;;;5034300;28;20128;-78
2023/03/07 12:23:48;;;;;;;20.83;9.53;;;9.60;99.90;;;;;;5033898;28;20074;-78
2023/03/07 12:26:24;;;;;;;;;;;9.60;99.90;;;;;;5036612;28;20543;-78
2023/03/07 12:29:01;;;;;;;14.47;8.53;;;9.80;99.90;;;;;;5032758;28;19905;-78
2023/03/07 12:31:32;;;;;;;14.47;9.50;;;9.90;99.90;;;;;;5037067;28;20390;-78
2023/03/07 12:34:08;;;;;;;15.93;8.63;;;10.10;99.90;;;;;;5036213;28;20027;-78
2023/03/07 12:37:01;;;;;;;14.60;9.17;;;10.40;99.90;;;;;;5035552;28;20926;-78
2023/03/07 12:39:30;;;;;;;14.70;9.40;;;10.70;99.90;;;;;;5025921;28;20033;-78
2023/03/07 12:41:55;;;;;;;14.73;8.63;;;10.60;99.90;;;;;;5034441;28;20051;-78
2023/03/07 12:44:35;;;;;;;13.87;8.93;;;10.40;99.90;;;;;;5026119;28;20040;-78
2023/03/07 12:47:14;;;;;;;15.03;8.80;;;10.20;99.90;;;;;;5031404;28;20060;-78
2023/03/07 12:49:57;;;;;;;12.53;8.40;;;10.10;99.90;;;;;;5032434;28;20038;-78
2023/03/07 12:52:44;;;;;;;15.20;8.70;;;10.00;99.90;;;;;;5028081;28;20103;-78
2023/03/07 12:55:41;;;;;;;14.63;8.97;;;10.10;99.90;;;;;;5031895;28;20040;-78
2023/03/07 12:58:21;;;;;;;15.83;9.00;;;10.10;99.90;;;;;;5028099;28;20028;-78